Time;durP1;ratioP1;P1;durP2;ratioP2;P2;SDS_P1;SDS_P2;PMS_P1;PMS_P2;Temp;Humidity;BMP_temperature;BMP_pressure;BME280_temperature;BME280_humidity;BME280_pressure;Samples;Min_cycle;Max_cycle;Signal;HPM_P1;HPM_P2
2022/10/23 00:00:17;;;;;;;;;;;;;;;;;;7368309;19;1573;-56
2022/10/23 00:02:45;;;;;;;;;;;;;;;;;;7367365;19;1853;-57
2022/10/23 00:05:13;;;;;;;;;;;;;;;;;;7370241;19;1820;-58
2022/10/23 00:07:41;;;;;;;;;;;;;;;;;;7368355;19;1937;-59
2022/10/23 00:10:09;;;;;;;;;;;;;;;;;;7366622;19;850;-55
2022/10/23 00:12:38;;;;;;;;;;;;;;;;;;7370424;19;1810;-57
2022/10/23 00:15:06;;;;;;;;;;;;;;;;;;7371176;19;1747;-57
2022/10/23 00:17:34;;;;;;;;;;;;;;;;;;7369582;19;1816;-56
2022/10/23 00:20:02;;;;;;;;;;;;;;;;;;7370978;19;1780;-60
2022/10/23 00:22:30;;;;;;;;;;;;;;;;;;7369945;19;1864;-55
2022/10/23 00:24:58;;;;;;;;;;;;;;;;;;7371154;19;1759;-51
2022/10/23 00:27:26;;;;;;;;;;;;;;;;;;7368161;19;1788;-57
2022/10/23 00:29:55;;;;;;;;;;;;;;;;;;7370255;19;1839;-59
2022/10/23 00:32:23;;;;;;;;;;;;;;;;;;7369835;19;1813;-57
2022/10/23 00:34:51;;;;;;;;;;;;;;;;;;7366460;19;1807;-55
2022/10/23 00:37:19;;;;;;;;;;;;;;;;;;7366200;19;1826;-61
2022/10/23 00:39:47;;;;;;;;;;;;;;;;;;7366247;19;1821;-57
2022/10/23 00:42:15;;;;;;;;;;;;;;;;;;7368136;19;1850;-51
2022/10/23 00:44:44;;;;;;;;;;;;;;;;;;7367490;19;1804;-56
2022/10/23 00:47:13;;;;;;;;;;;;;;;;;;7369133;19;1776;-58
2022/10/23 00:49:41;;;;;;;;;;;;;;;;;;7368342;19;1833;-60
2022/10/23 00:52:09;;;;;;;;;;;;;;;;;;7370804;19;1787;-58
2022/10/23 00:54:37;;;;;;;;;;;;;;;;;;7365209;19;1698;-60
2022/10/23 00:57:05;;;;;;;;;;;;;;;;;;7370424;19;1603;-60
2022/10/23 00:59:33;;;;;;;;;;;;;;;;;;7368827;19;1953;-58
2022/10/23 01:02:01;;;;;;;;;;;;;;;;;;7364932;19;1845;-56
2022/10/23 01:04:29;;;;;;;;;;;;;;;;;;7370320;19;1646;-57
2022/10/23 01:06:57;;;;;;;;;;;;;;;;;;7364850;19;1275;-54
2022/10/23 01:09:26;;;;;;;;;;;;;;;;;;7365643;19;815;-58
2022/10/23 01:11:54;;;;;;;;;;;;;;;;;;7364832;19;1822;-57
2022/10/23 01:14:22;;;;;;;;;;;;;;;;;;7365984;19;881;-57
2022/10/23 01:16:50;;;;;;;;;;;;;;;;;;7367555;19;2002;-55
2022/10/23 01:19:18;;;;;;;;;;;;;;;;;;7368502;19;1605;-56
2022/10/23 01:21:46;;;;;;;;;;;;;;;;;;7365220;19;1866;-59
2022/10/23 01:24:14;;;;;;;;;;;;;;;;;;7365936;19;1801;-58
2022/10/23 01:26:44;;;;;;;;;;;;;;;;;;7364043;19;1832;-56
2022/10/23 01:29:18;;;;;;;;;;;;;;;;;;7365123;19;2043;-58
2022/10/23 01:31:46;;;;;;;;;;;;;;;;;;7365631;19;1810;-55
2022/10/23 01:34:14;;;;;;;;;;;;;;;;;;7363577;19;1859;-58
2022/10/23 01:36:44;;;;;;;;;;;;;;;;;;7366157;19;1821;-59
2022/10/23 01:39:12;;;;;;;;;;;;;;;;;;7364872;19;1859;-57
2022/10/23 01:41:41;;;;;;;;;;;;;;;;;;7364681;19;2156;-59
2022/10/23 01:44:09;;;;;;;;;;;;;;;;;;7368802;19;1782;-57
2022/10/23 01:46:37;;;;;;;;;;;;;;;;;;7366667;19;1796;-56
2022/10/23 01:49:08;;;;;;;;;;;;;;;;;;7366543;19;1817;-58
2022/10/23 01:51:37;;;;;;;;;;;;;;;;;;7367913;19;1811;-55
2022/10/23 01:54:07;;;;;;;;;;;;;;;;;;7363321;19;743;-54
2022/10/23 01:56:35;;;;;;;;;;;;;;;;;;7368564;19;1790;-55
2022/10/23 01:59:04;;;;;;;;;;;;;;;;;;7362888;19;808;-59
2022/10/23 02:01:36;;;;;;;;;;;;;;;;;;7366828;19;2151;-60
2022/10/23 02:04:04;;;;;;;;;;;;;;;;;;7368103;19;2184;-59
2022/10/23 02:06:32;;;;;;;;;;;;;;;;;;7363574;19;1697;-60
2022/10/23 02:09:00;;;;;;;;;;;;;;;;;;7363867;19;1833;-53
2022/10/23 02:11:28;;;;;;;;;;;;;;;;;;7364697;19;1649;-59
2022/10/23 02:13:57;;;;;;;;;;;;;;;;;;7365618;19;1893;-54
2022/10/23 02:16:25;;;;;;;;;;;;;;;;;;7365778;19;1766;-58
2022/10/23 02:18:53;;;;;;;;;;;;;;;;;;7362786;19;1791;-59
2022/10/23 02:21:22;;;;;;;;;;;;;;;;;;7366895;19;1807;-57
2022/10/23 02:23:50;;;;;;;;;;;;;;;;;;7362851;19;1853;-59
2022/10/23 02:26:18;;;;;;;;;;;;;;;;;;7364532;19;2067;-58
2022/10/23 02:28:49;;;;;;;;;;;;;;;;;;7363163;19;1849;-59
2022/10/23 02:31:17;;;;;;;;;;;;;;;;;;7363557;19;1779;-57
2022/10/23 02:33:45;;;;;;;;;;;;;;;;;;7367040;19;2153;-57
2022/10/23 02:36:14;;;;;;;;;;;;;;;;;;7370486;19;1833;-58
2022/10/23 02:38:42;;;;;;;;;;;;;;;;;;7372323;19;1876;-56
2022/10/23 02:41:10;;;;;;;;;;;;;;;;;;7374011;19;1666;-55
2022/10/23 02:43:39;;;;;;;;;;;;;;;;;;7369996;19;1874;-57
2022/10/23 02:46:07;;;;;;;;;;;;;;;;;;7368582;19;1788;-57
2022/10/23 02:48:35;;;;;;;;;;;;;;;;;;7366533;19;1247;-55
2022/10/23 02:51:08;;;;;;;;;;;;;;;;;;7372717;19;2052;-57
2022/10/23 02:53:36;;;;;;;;;;;;;;;;;;7371107;19;1873;-58
2022/10/23 02:56:06;;;;;;;;;;;;;;;;;;7369211;19;1671;-54
2022/10/23 02:58:34;;;;;;;;;;;;;;;;;;7368060;19;1812;-59
2022/10/23 03:01:02;;;;;;;;;;;;;;;;;;7372500;19;1766;-56
2022/10/23 03:03:30;;;;;;;;;;;;;;;;;;7370202;19;1841;-56
2022/10/23 03:05:59;;;;;;;;;;;;;;;;;;7367922;19;780;-55
2022/10/23 03:08:27;;;;;;;;;;;;;;;;;;7371188;19;1662;-56
2022/10/23 03:10:55;;;;;;;;;;;;;;;;;;7372094;19;1828;-55
2022/10/23 03:13:24;;;;;;;;;;;;;;;;;;7371838;19;1840;-59
2022/10/23 03:15:53;;;;;;;;;;;;;;;;;;7370800;19;1783;-59
2022/10/23 03:18:21;;;;;;;;;;;;;;;;;;7370626;19;1766;-59
2022/10/23 03:20:51;;;;;;;;;;;;;;;;;;7368555;19;1796;-59
2022/10/23 03:23:23;;;;;;;;;;;;;;;;;;7370524;19;1849;-60
2022/10/23 03:25:51;;;;;;;;;;;;;;;;;;7367716;19;776;-59
2022/10/23 03:28:32;;;;;;;;;;;;;;;;;;7364605;19;1314;-60
2022/10/23 03:31:01;;;;;;;;;;;;;;;;;;7367921;19;1837;-58
2022/10/23 03:33:29;;;;;;;;;;;;;;;;;;7371483;19;1900;-60
2022/10/23 03:36:01;;;;;;;;;;;;;;;;;;7369366;19;2073;-58
2022/10/23 03:38:29;;;;;;;;;;;;;;;;;;7367468;19;1774;-57
2022/10/23 03:40:57;;;;;;;;;;;;;;;;;;7367205;19;780;-59
2022/10/23 03:43:26;;;;;;;;;;;;;;;;;;7371475;19;2040;-60
2022/10/23 03:45:54;;;;;;;;;;;;;;;;;;7367730;19;814;-58
2022/10/23 03:48:23;;;;;;;;;;;;;;;;;;7369021;19;1764;-59
2022/10/23 03:50:51;;;;;;;;;;;;;;;;;;7372338;19;1892;-58
2022/10/23 03:53:20;;;;;;;;;;;;;;;;;;7370940;19;1813;-59
2022/10/23 03:55:48;;;;;;;;;;;;;;;;;;7370636;19;1782;-57
2022/10/23 03:58:18;;;;;;;;;;;;;;;;;;7368758;19;1694;-55
2022/10/23 04:00:47;;;;;;;;;;;;;;;;;;7368995;19;1787;-55
2022/10/23 04:03:15;;;;;;;;;;;;;;;;;;7368854;19;1850;-58
2022/10/23 04:05:43;;;;;;;;;;;;;;;;;;7371623;19;1738;-60
2022/10/23 04:08:11;;;;;;;;;;;;;;;;;;7366954;19;1791;-58
2022/10/23 04:10:39;;;;;;;;;;;;;;;;;;7366316;19;862;-60
2022/10/23 04:13:07;;;;;;;;;;;;;;;;;;7370941;19;1760;-53
2022/10/23 04:15:37;;;;;;;;;;;;;;;;;;7370844;19;1563;-54
2022/10/23 04:18:05;;;;;;;;;;;;;;;;;;7366413;19;1844;-54
2022/10/23 04:20:33;;;;;;;;;;;;;;;;;;7366553;19;802;-60
2022/10/23 04:23:03;;;;;;;;;;;;;;;;;;7368014;19;2249;-59
2022/10/23 04:25:34;;;;;;;;;;;;;;;;;;7370568;19;1831;-59
2022/10/23 04:28:02;;;;;;;;;;;;;;;;;;7367051;19;1824;-59
2022/10/23 04:30:34;;;;;;;;;;;;;;;;;;7368740;19;1809;-60
2022/10/23 04:33:02;;;;;;;;;;;;;;;;;;7369834;19;2220;-60
2022/10/23 04:35:30;;;;;;;;;;;;;;;;;;7369388;19;1813;-57
2022/10/23 04:37:58;;;;;;;;;;;;;;;;;;7367032;19;2060;-58
2022/10/23 04:40:27;;;;;;;;;;;;;;;;;;7365586;19;814;-60
2022/10/23 04:42:56;;;;;;;;;;;;;;;;;;7367747;19;1862;-58
2022/10/23 04:45:24;;;;;;;;;;;;;;;;;;7365366;19;854;-55
2022/10/23 04:47:52;;;;;;;;;;;;;;;;;;7366679;19;1808;-58
2022/10/23 04:50:20;;;;;;;;;;;;;;;;;;7365263;19;1758;-57
2022/10/23 04:53:12;;;;;;;;;;;;;;;;;;7367940;19;1798;-58
2022/10/23 04:55:58;;;;;;;;;;;;;;;;;;7368530;19;1791;-59
2022/10/23 04:58:37;;;;;;;;;;;;;;;;;;7362491;19;1807;-58
2022/10/23 05:01:06;;;;;;;;;;;;;;;;;;7367534;19;1774;-58
2022/10/23 05:03:35;;;;;;;;;;;;;;;;;;7368072;19;2143;-55
2022/10/23 05:06:04;;;;;;;;;;;;;;;;;;7365230;19;822;-58
2022/10/23 05:08:41;;;;;;;;;;;;;;;;;;7368233;19;1633;-57
2022/10/23 05:11:21;;;;;;;;;;;;;;;;;;7368889;19;1775;-59
2022/10/23 05:13:51;;;;;;;;;;;;;;;;;;7365797;19;905;-57
2022/10/23 05:16:19;;;;;;;;;;;;;;;;;;7364405;19;1039;-60
2022/10/23 05:18:47;;;;;;;;;;;;;;;;;;7362947;19;1283;-58
2022/10/23 05:21:15;;;;;;;;;;;;;;;;;;7365319;19;1827;-59
2022/10/23 05:23:44;;;;;;;;;;;;;;;;;;7367160;19;1853;-60
2022/10/23 05:26:14;;;;;;;;;;;;;;;;;;7367993;19;1844;-55
2022/10/23 05:28:44;;;;;;;;;;;;;;;;;;7363555;19;1541;-60
2022/10/23 05:31:15;;;;;;;;;;;;;;;;;;7364526;19;786;-55
2022/10/23 05:33:47;;;;;;;;;;;;;;;;;;7369451;19;1375;-53
2022/10/23 05:36:15;;;;;;;;;;;;;;;;;;7367537;19;1763;-57
2022/10/23 05:38:45;;;;;;;;;;;;;;;;;;7364458;19;1803;-60
2022/10/23 05:41:17;;;;;;;;;;;;;;;;;;7365486;19;715;-54
2022/10/23 05:43:45;;;;;;;;;;;;;;;;;;7368547;19;1819;-56
2022/10/23 05:46:32;;;;;;;;;;;;;;;;;;7366477;19;1743;-61
2022/10/23 05:49:23;;;;;;;;;;;;;;;;;;7364569;19;1777;-58
2022/10/23 05:52:19;;;;;;;;;;;;;;;;;;7365464;19;2145;-56
2022/10/23 05:55:12;;;;;;;;;;;;;;;;;;7365170;19;1779;-57
2022/10/23 05:57:49;;;;;;;;;;;;;;;;;;7363031;19;1783;-58
2022/10/23 06:00:22;;;;;;;;;;;;;;;;;;7363375;19;1813;-58
2022/10/23 06:03:00;;;;;;;;;;;;;;;;;;7363454;19;2046;-56
2022/10/23 06:05:36;;;;;;;;;;;;;;;;;;7363607;19;728;-58
2022/10/23 06:08:23;;;;;;;;;;;;;;;;;;7361542;19;1833;-58
2022/10/23 06:10:52;;;;;;;;;;;;;;;;;;7363877;19;1902;-58
2022/10/23 06:13:21;;;;;;;;;;;;;;;;;;7364876;19;1889;-59
2022/10/23 06:15:49;;;;;;;;;;;;;;;;;;7364653;19;834;-58
2022/10/23 06:18:21;;;;;;;;;;;;;;;;;;7364813;19;1793;-59
2022/10/23 06:20:56;;;;;;;;;;;;;;;;;;7363710;19;761;-58
2022/10/23 06:23:27;;;;;;;;;;;;;;;;;;7366774;19;1866;-58
2022/10/23 06:26:14;;;;;;;;;;;;;;;;;;7367455;19;1691;-54
2022/10/23 06:29:02;;;;;;;;;;;;;;;;;;7369972;19;1810;-55
2022/10/23 06:31:31;;;;;;;;;;;;;;;;;;7370103;19;1785;-53
2022/10/23 06:33:59;;;;;;;;;;;;;;;;;;7374076;19;1768;-55
2022/10/23 06:36:28;;;;;;;;;;;;;;;;;;7368309;19;1782;-55
2022/10/23 06:39:04;;;;;;;;;;;;;;;;;;7365799;19;1836;-59
2022/10/23 06:42:02;;;;;;;;;;;;;;;;;;7365641;19;1584;-58
2022/10/23 06:44:49;;;;;;;;;;;;;;;;;;7363524;19;1853;-55
2022/10/23 06:47:25;;;;;;;;;;;;;;;;;;7363578;19;1757;-58
2022/10/23 06:50:12;;;;;;;;;;;;;;;;;;7367663;19;1786;-58
2022/10/23 06:52:40;;;;;;;;;;;;;;;;;;7365316;19;1464;-57
2022/10/23 06:55:08;;;;;;;;;;;;;;;;;;7363749;19;1791;-58
2022/10/23 06:57:38;;;;;;;;;;;;;;;;;;7362763;19;1776;-57
2022/10/23 07:00:07;;;;;;;;;;;;;;;;;;7364805;19;1830;-56
2022/10/23 07:02:43;;;;;;;;;;;;;;;;;;7364019;19;1816;-58
2022/10/23 07:05:12;;;;;;;;;;;;;;;;;;7363406;19;1857;-57
2022/10/23 07:07:40;;;;;;;;;;;;;;;;;;7360287;19;1659;-59
2022/10/23 07:10:08;;;;;;;;;;;;;;;;;;7361761;19;820;-59
2022/10/23 07:12:42;;;;;;;;;;;;;;;;;;7362118;19;794;-53
2022/10/23 07:15:34;;;;;;;;;;;;;;;;;;7361536;19;827;-58
2022/10/23 07:18:02;;;;;;;;;;;;;;;;;;7359251;19;1271;-59
2022/10/23 07:20:42;;;;;;;;;;;;;;;;;;7365007;19;735;-55
2022/10/23 07:23:10;;;;;;;;;;;;;;;;;;7370847;19;1833;-58
2022/10/23 07:25:40;;;;;;;;;;;;;;;;;;7370314;19;1830;-53
2022/10/23 07:28:09;;;;;;;;;;;;;;;;;;7367424;19;2343;-55
2022/10/23 07:30:39;;;;;;;;;;;;;;;;;;7369823;19;1720;-58
2022/10/23 07:33:07;;;;;;;;;;;;;;;;;;7369011;19;1716;-56
2022/10/23 07:35:35;;;;;;;;;;;;;;;;;;7372330;19;2002;-56
2022/10/23 07:38:12;;;;;;;;;;;;;;;;;;7366870;19;1888;-59
2022/10/23 07:40:43;;;;;;;;;;;;;;;;;;7370842;19;1374;-57
2022/10/23 07:43:12;;;;;;;;;;;;;;;;;;7371595;19;1857;-55
2022/10/23 07:45:41;;;;;;;;;;;;;;;;;;7367138;19;790;-55
2022/10/23 07:48:22;;;;;;;;;;;;;;;;;;7368842;19;1706;-56
2022/10/23 07:51:00;;;;;;;;;;;;;;;;;;7368662;19;737;-57
2022/10/23 07:53:28;;;;;;;;;;;;;;;;;;7370773;19;1787;-53
2022/10/23 07:56:01;;;;;;;;;;;;;;;;;;7368425;19;1842;-56
2022/10/23 07:58:47;;;;;;;;;;;;;;;;;;7366618;19;1620;-54
2022/10/23 08:01:18;;;;;;;;;;;;;;;;;;7367426;19;1593;-59
2022/10/23 08:03:46;;;;;;;;;;;;;;;;;;7367530;19;1849;-60
2022/10/23 08:06:14;;;;;;;;;;;;;;;;;;7366675;19;935;-60
2022/10/23 08:08:42;;;;;;;;;;;;;;;;;;7364943;19;1318;-60
2022/10/23 08:11:11;;;;;;;;;;;;;;;;;;7366796;19;814;-58
2022/10/23 08:13:46;;;;;;;;;;;;;;;;;;7366896;19;880;-57
2022/10/23 08:16:14;;;;;;;;;;;;;;;;;;7367058;19;846;-55
2022/10/23 08:19:03;;;;;;;;;;;;;;;;;;7366929;19;940;-56
2022/10/23 08:21:31;;;;;;;;;;;;;;;;;;7366334;19;894;-57
2022/10/23 08:23:59;;;;;;;;;;;;;;;;;;7365893;19;1838;-55
2022/10/23 08:26:28;;;;;;;;;;;;;;;;;;7367626;19;1806;-54
2022/10/23 08:28:56;;;;;;;;;;;;;;;;;;7362378;19;819;-54
2022/10/23 08:31:24;;;;;;;;;;;;;;;;;;7363236;19;756;-54
2022/10/23 08:34:15;;;;;;;;;;;;;;;;;;7366002;19;800;-59
2022/10/23 08:36:44;;;;;;;;;;;;;;;;;;7365334;19;1291;-55
2022/10/23 08:39:13;;;;;;;;;;;;;;;;;;7367114;19;1813;-55
2022/10/23 08:41:49;;;;;;;;;;;;;;;;;;7365876;19;740;-60
2022/10/23 08:44:17;;;;;;;;;;;;;;;;;;7364335;19;1845;-60
2022/10/23 08:46:46;;;;;;;;;;;;;;;;;;7364931;19;1323;-60
2022/10/23 08:49:32;;;;;;;;;;;;;;;;;;7366529;19;858;-59
2022/10/23 08:52:06;;;;;;;;;;;;;;;;;;7364587;19;754;-59
2022/10/23 08:54:34;;;;;;;;;;;;;;;;;;7369922;19;1822;-60
2022/10/23 08:57:02;;;;;;;;;;;;;;;;;;7365539;19;1286;-59
2022/10/23 08:59:31;;;;;;;;;;;;;;;;;;7365942;19;862;-57
2022/10/23 09:02:00;;;;;;;;;;;;;;;;;;7367207;19;763;-58
2022/10/23 09:04:28;;;;;;;;;;;;;;;;;;7369137;19;1865;-61
2022/10/23 09:06:56;;;;;;;;;;;;;;;;;;7365936;19;1374;-59
2022/10/23 09:09:24;;;;;;;;;;;;;;;;;;7364822;19;790;-60
2022/10/23 09:11:52;;;;;;;;;;;;;;;;;;7370453;19;1807;-60
2022/10/23 09:14:20;;;;;;;;;;;;;;;;;;7367225;19;857;-57
2022/10/23 09:16:48;;;;;;;;;;;;;;;;;;7366229;19;1227;-60
2022/10/23 09:19:16;;;;;;;;;;;;;;;;;;7365336;19;853;-54
2022/10/23 09:21:45;;;;;;;;;;;;;;;;;;7368143;19;2116;-60
2022/10/23 09:24:13;;;;;;;;;;;;;;;;;;7368794;19;1857;-55
2022/10/23 09:26:41;;;;;;;;;;;;;;;;;;7365757;19;1339;-55
2022/10/23 09:29:09;;;;;;;;;;;;;;;;;;7365193;19;857;-58
2022/10/23 09:31:37;;;;;;;;;;;;;;;;;;7365619;19;808;-56
2022/10/23 09:34:06;;;;;;;;;;;;;;;;;;7365698;19;814;-57
2022/10/23 09:36:34;;;;;;;;;;;;;;;;;;7365219;19;1277;-55
2022/10/23 09:39:02;;;;;;;;;;;;;;;;;;7366034;19;2042;-59
2022/10/23 09:41:30;;;;;;;;;;;;;;;;;;7365799;19;855;-59
2022/10/23 09:43:58;;;;;;;;;;;;;;;;;;7364211;19;1853;-60
2022/10/23 09:46:26;;;;;;;;;;;;;;;;;;7364590;19;870;-60
2022/10/23 09:48:54;;;;;;;;;;;;;;;;;;7361844;19;1333;-59
2022/10/23 09:51:23;;;;;;;;;;;;;;;;;;7366293;19;1799;-54
2022/10/23 09:53:51;;;;;;;;;;;;;;;;;;7369348;19;1700;-60
2022/10/23 09:56:19;;;;;;;;;;;;;;;;;;7368200;19;1771;-59
2022/10/23 09:58:47;;;;;;;;;;;;;;;;;;7362692;19;1830;-59
2022/10/23 10:01:15;;;;;;;;;;;;;;;;;;7368248;19;1818;-54
2022/10/23 10:03:48;;;;;;;;;;;;;;;;;;7363760;19;1861;-59
2022/10/23 10:06:16;;;;;;;;;;;;;;;;;;7365640;19;1425;-62
2022/10/23 10:08:46;;;;;;;;;;;;;;;;;;7364554;19;1268;-60
2022/10/23 10:11:14;;;;;;;;;;;;;;;;;;7364418;19;883;-60
2022/10/23 10:13:42;;;;;;;;;;;;;;;;;;7364167;19;797;-53
2022/10/23 10:16:10;;;;;;;;;;;;;;;;;;7365159;19;920;-57
2022/10/23 10:18:39;;;;;;;;;;;;;;;;;;7361175;19;1309;-59
2022/10/23 10:21:07;;;;;;;;;;;;;;;;;;7364368;19;826;-53
2022/10/23 10:23:35;;;;;;;;;;;;;;;;;;7364689;19;780;-56
2022/10/23 10:26:03;;;;;;;;;;;;;;;;;;7360291;19;1853;-60
2022/10/23 10:28:32;;;;;;;;;;;;;;;;;;7360524;19;1271;-57
2022/10/23 10:31:00;;;;;;;;;;;;;;;;;;7364380;19;800;-59
2022/10/23 10:33:28;;;;;;;;;;;;;;;;;;7361665;19;855;-59
2022/10/23 10:35:56;;;;;;;;;;;;;;;;;;7363864;19;740;-59
2022/10/23 10:38:24;;;;;;;;;;;;;;;;;;7360637;19;1282;-57
2022/10/23 10:40:52;;;;;;;;;;;;;;;;;;7363632;19;804;-58
2022/10/23 10:43:20;;;;;;;;;;;;;;;;;;7362067;19;764;-60
2022/10/23 10:45:49;;;;;;;;;;;;;;;;;;7361557;19;1842;-60
2022/10/23 10:48:17;;;;;;;;;;;;;;;;;;7360660;19;1327;-59
2022/10/23 10:51:03;;;;;;;;;;;;;;;;;;7363650;19;774;-59
2022/10/23 10:53:43;;;;;;;;;;;;;;;;;;7362064;19;953;-60
2022/10/23 10:56:11;;;;;;;;;;;;;;;;;;7367997;19;853;-59
2022/10/23 10:58:39;;;;;;;;;;;;;;;;;;7367121;19;1276;-60
2022/10/23 11:01:07;;;;;;;;;;;;;;;;;;7369448;19;898;-54
2022/10/23 11:03:36;;;;;;;;;;;;;;;;;;7369192;19;783;-60
2022/10/23 11:06:04;;;;;;;;;;;;;;;;;;7367755;19;1850;-57
2022/10/23 11:08:32;;;;;;;;;;;;;;;;;;7367688;19;1227;-59
2022/10/23 11:11:00;;;;;;;;;;;;;;;;;;7369323;19;783;-59
2022/10/23 11:13:28;;;;;;;;;;;;;;;;;;7369330;19;771;-59
2022/10/23 11:15:57;;;;;;;;;;;;;;;;;;7369490;19;799;-53
2022/10/23 11:18:26;;;;;;;;;;;;;;;;;;7366369;19;1283;-56
2022/10/23 11:20:54;;;;;;;;;;;;;;;;;;7369987;19;803;-59
2022/10/23 11:23:23;;;;;;;;;;;;;;;;;;7369730;19;774;-60
2022/10/23 11:25:51;;;;;;;;;;;;;;;;;;7367136;19;1807;-59
2022/10/23 11:28:19;;;;;;;;;;;;;;;;;;7366374;19;1325;-59
2022/10/23 11:30:47;;;;;;;;;;;;;;;;;;7367525;19;834;-55
2022/10/23 11:33:15;;;;;;;;;;;;;;;;;;7368026;19;877;-59
2022/10/23 11:35:44;;;;;;;;;;;;;;;;;;7368772;19;790;-60
2022/10/23 11:38:12;;;;;;;;;;;;;;;;;;7366199;19;1275;-59
2022/10/23 11:40:40;;;;;;;;;;;;;;;;;;7367939;19;803;-59
2022/10/23 11:43:08;;;;;;;;;;;;;;;;;;7368284;19;791;-57
2022/10/23 11:45:36;;;;;;;;;;;;;;;;;;7366964;19;1942;-59
2022/10/23 11:48:04;;;;;;;;;;;;;;;;;;7366599;19;1285;-59
2022/10/23 11:50:32;;;;;;;;;;;;;;;;;;7368791;19;811;-60
2022/10/23 11:53:03;;;;;;;;;;;;;;;;;;7368986;19;855;-58
2022/10/23 11:55:31;;;;;;;;;;;;;;;;;;7368228;19;712;-55
2022/10/23 11:57:59;;;;;;;;;;;;;;;;;;7365590;19;1294;-55
2022/10/23 12:00:27;;;;;;;;;;;;;;;;;;7367886;19;865;-60
2022/10/23 12:02:55;;;;;;;;;;;;;;;;;;7367411;19;846;-60
2022/10/23 12:05:23;;;;;;;;;;;;;;;;;;7367055;19;1875;-60
2022/10/23 12:07:51;;;;;;;;;;;;;;;;;;7361089;19;1330;-58
2022/10/23 12:10:19;;;;;;;;;;;;;;;;;;7368003;19;758;-54
2022/10/23 12:12:48;;;;;;;;;;;;;;;;;;7366016;19;874;-56
2022/10/23 12:15:17;;;;;;;;;;;;;;;;;;7365831;19;813;-52
2022/10/23 12:17:45;;;;;;;;;;;;;;;;;;7366036;19;1276;-59
2022/10/23 12:20:19;;;;;;;;;;;;;;;;;;7365922;19;759;-60
2022/10/23 12:22:47;;;;;;;;;;;;;;;;;;7367665;19;800;-58
2022/10/23 12:25:15;;;;;;;;;;;;;;;;;;7366521;19;1849;-60
2022/10/23 12:27:43;;;;;;;;;;;;;;;;;;7366375;19;1243;-58
2022/10/23 12:30:11;;;;;;;;;;;;;;;;;;7367202;19;743;-60
2022/10/23 12:32:39;;;;;;;;;;;;;;;;;;7367640;19;786;-58
2022/10/23 12:35:07;;;;;;;;;;;;;;;;;;7367436;19;810;-60
2022/10/23 12:37:37;;;;;;;;;;;;;;;;;;7364045;19;1313;-59
2022/10/23 12:40:05;;;;;;;;;;;;;;;;;;7367180;19;882;-60
2022/10/23 12:42:33;;;;;;;;;;;;;;;;;;7367844;19;772;-60
2022/10/23 12:45:01;;;;;;;;;;;;;;;;;;7367715;19;1829;-60
2022/10/23 12:47:29;;;;;;;;;;;;;;;;;;7368004;19;1292;-60
2022/10/23 12:49:57;;;;;;;;;;;;;;;;;;7368714;19;867;-58
2022/10/23 12:52:26;;;;;;;;;;;;;;;;;;7368989;19;813;-58
2022/10/23 12:54:54;;;;;;;;;;;;;;;;;;7368105;19;877;-60
2022/10/23 12:57:22;;;;;;;;;;;;;;;;;;7366452;19;1279;-59
2022/10/23 12:59:50;;;;;;;;;;;;;;;;;;7366110;19;781;-59
2022/10/23 13:02:18;;;;;;;;;;;;;;;;;;7368582;19;808;-59
2022/10/23 13:04:47;;;;;;;;;;;;;;;;;;7368001;19;1852;-55
2022/10/23 13:07:15;;;;;;;;;;;;;;;;;;7366008;19;1248;-53
2022/10/23 13:09:43;;;;;;;;;;;;;;;;;;7365496;19;902;-60
2022/10/23 13:12:15;;;;;;;;;;;;;;;;;;7366355;19;850;-57
2022/10/23 13:14:44;;;;;;;;;;;;;;;;;;7375329;19;849;-60
2022/10/23 13:17:12;;;;;;;;;;;;;;;;;;7374131;19;1277;-55
2022/10/23 13:19:40;;;;;;;;;;;;;;;;;;7374155;19;1225;-56
2022/10/23 13:22:09;;;;;;;;;;;;;;;;;;7372737;19;752;-58
2022/10/23 13:24:37;;;;;;;;;;;;;;;;;;7372976;19;806;-58
2022/10/23 13:27:05;;;;;;;;;;;;;;;;;;7365500;19;1854;-59
2022/10/23 13:29:33;;;;;;;;;;;;;;;;;;7366088;19;882;-59
2022/10/23 13:32:01;;;;;;;;;;;;;;;;;;7366677;19;784;-60
2022/10/23 13:34:29;;;;;;;;;;;;;;;;;;7366752;19;928;-59
2022/10/23 13:36:58;;;;;;;;;;;;;;;;;;7365963;19;1313;-60
2022/10/23 13:39:26;;;;;;;;;;;;;;;;;;7365704;19;878;-59
2022/10/23 13:41:54;;;;;;;;;;;;;;;;;;7365278;19;881;-59
2022/10/23 13:44:22;;;;;;;;;;;;;;;;;;7365871;19;817;-59
2022/10/23 13:46:51;;;;;;;;;;;;;;;;;;7362802;19;1842;-60
2022/10/23 13:49:19;;;;;;;;;;;;;;;;;;7364671;19;817;-60
2022/10/23 13:51:48;;;;;;;;;;;;;;;;;;7364329;19;831;-60
2022/10/23 13:54:17;;;;;;;;;;;;;;;;;;7367827;19;1388;-57
2022/10/23 13:56:45;;;;;;;;;;;;;;;;;;7364772;19;1307;-59
2022/10/23 13:59:13;;;;;;;;;;;;;;;;;;7363542;19;726;-54
2022/10/23 14:01:41;;;;;;;;;;;;;;;;;;7364965;19;782;-60
2022/10/23 14:04:10;;;;;;;;;;;;;;;;;;7364590;19;853;-59
2022/10/23 14:06:38;;;;;;;;;;;;;;;;;;7361769;19;1861;-57
2022/10/23 14:09:06;;;;;;;;;;;;;;;;;;7364460;19;748;-55
2022/10/23 14:11:35;;;;;;;;;;;;;;;;;;7365168;19;800;-58
2022/10/23 14:14:03;;;;;;;;;;;;;;;;;;7364223;19;811;-59
2022/10/23 14:16:31;;;;;;;;;;;;;;;;;;7364329;19;852;-60
2022/10/23 14:18:59;;;;;;;;;;;;;;;;;;7363397;19;809;-57
2022/10/23 14:21:27;;;;;;;;;;;;;;;;;;7364015;19;808;-58
2022/10/23 14:23:55;;;;;;;;;;;;;;;;;;7364184;19;798;-58
2022/10/23 14:26:23;;;;;;;;;;;;;;;;;;7362193;19;1841;-59
2022/10/23 14:28:51;;;;;;;;;;;;;;;;;;7359814;19;1274;-59
2022/10/23 14:31:20;;;;;;;;;;;;;;;;;;7361976;19;835;-65
2022/10/23 14:33:48;;;;;;;;;;;;;;;;;;7363841;19;859;-56
2022/10/23 14:36:16;;;;;;;;;;;;;;;;;;7361667;19;826;-59
2022/10/23 14:38:44;;;;;;;;;;;;;;;;;;7360152;19;1346;-55
2022/10/23 14:41:12;;;;;;;;;;;;;;;;;;7362560;19;885;-59
2022/10/23 14:43:41;;;;;;;;;;;;;;;;;;7362935;19;782;-60
2022/10/23 14:46:09;;;;;;;;;;;;;;;;;;7362282;19;1841;-60
2022/10/23 14:48:38;;;;;;;;;;;;;;;;;;7359938;19;1381;-60
2022/10/23 14:51:06;;;;;;;;;;;;;;;;;;7362629;19;873;-60
2022/10/23 14:53:34;;;;;;;;;;;;;;;;;;7362915;19;827;-61
2022/10/23 14:56:02;;;;;;;;;;;;;;;;;;7363869;19;866;-58
2022/10/23 14:58:30;;;;;;;;;;;;;;;;;;7359914;19;1317;-59
2022/10/23 15:00:58;;;;;;;;;;;;;;;;;;7362636;19;776;-56
2022/10/23 15:03:26;;;;;;;;;;;;;;;;;;7362651;19;819;-56
2022/10/23 15:05:55;;;;;;;;;;;;;;;;;;7360736;19;1864;-57
2022/10/23 15:08:23;;;;;;;;;;;;;;;;;;7359997;19;1326;-57
2022/10/23 15:10:51;;;;;;;;;;;;;;;;;;7362625;19;865;-59
2022/10/23 15:13:19;;;;;;;;;;;;;;;;;;7362284;19;805;-58
2022/10/23 15:15:47;;;;;;;;;;;;;;;;;;7362190;19;836;-59
2022/10/23 15:18:18;;;;;;;;;;;;;;;;;;7359192;19;1281;-59
2022/10/23 15:20:46;;;;;;;;;;;;;;;;;;7362560;19;754;-60
2022/10/23 15:23:14;;;;;;;;;;;;;;;;;;7362100;19;810;-60
2022/10/23 15:25:42;;;;;;;;;;;;;;;;;;7361850;19;1845;-59
2022/10/23 15:28:10;;;;;;;;;;;;;;;;;;7359524;19;1351;-60
2022/10/23 15:30:42;;;;;;;;;;;;;;;;;;7360279;19;776;-60
2022/10/23 15:33:10;;;;;;;;;;;;;;;;;;7361550;19;599;-55
2022/10/23 15:35:38;;;;;;;;;;;;;;;;;;7362176;19;784;-58
2022/10/23 15:38:06;;;;;;;;;;;;;;;;;;7359237;19;1267;-60
2022/10/23 15:40:34;;;;;;;;;;;;;;;;;;7361585;19;807;-60
2022/10/23 15:43:03;;;;;;;;;;;;;;;;;;7368289;19;799;-60
2022/10/23 15:45:31;;;;;;;;;;;;;;;;;;7368406;19;1853;-58
2022/10/23 15:48:00;;;;;;;;;;;;;;;;;;7366006;19;1291;-56
2022/10/23 15:50:28;;;;;;;;;;;;;;;;;;7368279;19;792;-61
2022/10/23 15:52:56;;;;;;;;;;;;;;;;;;7368284;19;807;-57
2022/10/23 15:55:24;;;;;;;;;;;;;;;;;;7367622;19;850;-59
2022/10/23 15:57:53;;;;;;;;;;;;;;;;;;7368454;19;1637;-59
2022/10/23 16:00:21;;;;;;;;;;;;;;;;;;7367723;19;816;-58
2022/10/23 16:02:49;;;;;;;;;;;;;;;;;;7368868;19;1826;-59
2022/10/23 16:05:17;;;;;;;;;;;;;;;;;;7371231;19;1684;-55
2022/10/23 16:07:45;;;;;;;;;;;;;;;;;;7365049;19;1839;-60
2022/10/23 16:10:13;;;;;;;;;;;;;;;;;;7368002;19;848;-59
2022/10/23 16:12:41;;;;;;;;;;;;;;;;;;7367819;19;806;-61
2022/10/23 16:15:09;;;;;;;;;;;;;;;;;;7367482;19;758;-61
2022/10/23 16:17:38;;;;;;;;;;;;;;;;;;7368902;19;2016;-59
2022/10/23 16:20:06;;;;;;;;;;;;;;;;;;7371869;19;1500;-59
2022/10/23 16:22:34;;;;;;;;;;;;;;;;;;7371672;19;1317;-61
2022/10/23 16:25:02;;;;;;;;;;;;;;;;;;7367953;19;2062;-61
2022/10/23 16:27:30;;;;;;;;;;;;;;;;;;7369621;19;1997;-56
2022/10/23 16:29:58;;;;;;;;;;;;;;;;;;7366863;19;1801;-59
2022/10/23 16:32:26;;;;;;;;;;;;;;;;;;7371252;19;1704;-57
2022/10/23 16:34:54;;;;;;;;;;;;;;;;;;7371654;19;1787;-60
2022/10/23 16:37:23;;;;;;;;;;;;;;;;;;7367819;19;1780;-59
2022/10/23 16:39:55;;;;;;;;;;;;;;;;;;7365166;19;718;-55
2022/10/23 16:42:52;;;;;;;;;;;;;;;;;;7366860;19;1848;-60
2022/10/23 16:45:33;;;;;;;;;;;;;;;;;;7366943;19;887;-55
2022/10/23 16:48:01;;;;;;;;;;;;;;;;;;7363884;19;1853;-55
2022/10/23 16:50:29;;;;;;;;;;;;;;;;;;7367217;19;790;-59
2022/10/23 16:52:57;;;;;;;;;;;;;;;;;;7365370;19;855;-61
2022/10/23 16:55:26;;;;;;;;;;;;;;;;;;7365467;19;813;-57
2022/10/23 16:57:54;;;;;;;;;;;;;;;;;;7368584;19;1765;-58
2022/10/23 17:00:22;;;;;;;;;;;;;;;;;;7364948;19;792;-59
2022/10/23 17:02:51;;;;;;;;;;;;;;;;;;7367234;19;721;-61
2022/10/23 17:05:19;;;;;;;;;;;;;;;;;;7370763;19;1759;-60
2022/10/23 17:07:48;;;;;;;;;;;;;;;;;;7362121;19;1845;-57
2022/10/23 17:10:16;;;;;;;;;;;;;;;;;;7366594;19;803;-59
2022/10/23 17:12:44;;;;;;;;;;;;;;;;;;7366179;19;788;-60
2022/10/23 17:15:13;;;;;;;;;;;;;;;;;;7367760;19;772;-58
2022/10/23 17:17:41;;;;;;;;;;;;;;;;;;7365982;19;1337;-55
2022/10/23 17:20:09;;;;;;;;;;;;;;;;;;7366956;19;859;-57
2022/10/23 17:22:37;;;;;;;;;;;;;;;;;;7367054;19;853;-62
2022/10/23 17:25:05;;;;;;;;;;;;;;;;;;7366734;19;844;-58
2022/10/23 17:27:34;;;;;;;;;;;;;;;;;;7365115;19;1844;-61